Time;durP1;ratioP1;P1;durP2;ratioP2;P2;SDS_P1;SDS_P2;PMS_P1;PMS_P2;Temp;Humidity;BMP_temperature;BMP_pressure;BME280_temperature;BME280_humidity;BME280_pressure;Samples;Min_cycle;Max_cycle;Signal;HPM_P1;HPM_P2
2020/12/20 00:00:34;;;;;;;38.53;14.60;;;1.40;99.90;;;;;;4892340;28;20162;-86
2020/12/20 00:03:00;;;;;;;42.08;15.20;;;1.40;99.90;;;;;;4890109;28;20139;-84
2020/12/20 00:05:29;;;;;;;43.28;15.27;;;1.40;99.90;;;;;;4898280;28;20152;-86
2020/12/20 00:08:00;;;;;;;42.28;16.25;;;1.40;99.90;;;;;;4906126;28;20136;-86
2020/12/20 00:10:25;;;;;;;43.15;14.93;;;1.40;99.90;;;;;;4904385;28;20088;-85
2020/12/20 00:12:49;;;;;;;33.92;13.63;;;1.50;99.90;;;;;;4908159;28;20095;-85
2020/12/20 00:15:12;;;;;;;42.97;15.05;;;1.50;99.90;;;;;;4903470;28;20089;-86
2020/12/20 00:17:47;;;;;;;41.55;15.45;;;1.40;99.90;;;;;;4898323;28;20586;-86
2020/12/20 00:20:22;;;;;;;40.97;15.75;;;1.40;99.90;;;;;;4897777;28;20086;-86
2020/12/20 00:22:53;;;;;;;46.30;15.73;;;;;;;;;;4882816;28;20474;-85
2020/12/20 00:25:16;;;;;;;42.70;14.43;;;1.40;99.90;;;;;;4905379;28;20098;-85
2020/12/20 00:27:43;;;;;;;37.90;15.18;;;1.30;99.90;;;;;;4899084;28;20104;-85
2020/12/20 00:30:07;;;;;;;46.75;15.52;;;1.30;99.90;;;;;;4897739;28;20119;-85
2020/12/20 00:32:31;;;;;;;45.10;15.85;;;1.40;99.90;;;;;;4893118;28;20093;-86
2020/12/20 00:34:54;;;;;;;39.95;14.45;;;1.30;99.90;;;;;;4899516;28;20611;-86
2020/12/20 00:37:19;;;;;;;43.40;13.95;;;;;;;;;;4902758;28;20090;-86
2020/12/20 00:39:43;;;;;;;43.75;14.63;;;1.30;99.90;;;;;;4904838;28;20089;-85
2020/12/20 00:42:08;;;;;;;37.42;15.35;;;1.20;99.90;;;;;;4901641;28;20091;-85
2020/12/20 00:44:32;;;;;;;;;;;1.00;99.90;;;;;;4900070;28;20173;-85
2020/12/20 00:46:58;;;;;;;39.42;14.20;;;1.30;99.90;;;;;;4900907;28;20018;-85
2020/12/20 00:49:24;;;;;;;36.83;13.75;;;1.30;99.90;;;;;;4906418;28;20093;-85
2020/12/20 00:51:48;;;;;;;48.47;16.60;;;1.40;99.90;;;;;;4894568;28;20489;-85
2020/12/20 00:54:15;;;;;;;41.78;14.55;;;1.40;99.90;;;;;;4906647;28;20122;-85
2020/12/20 00:56:39;;;;;;;41.05;13.93;;;1.40;99.90;;;;;;4904657;28;20184;-86
2020/12/20 00:59:09;;;;;;;47.15;16.27;;;1.40;99.90;;;;;;4904814;28;20177;-85
2020/12/20 01:01:32;;;;;;;38.92;15.02;;;1.40;99.90;;;;;;4902133;28;20084;-85
2020/12/20 01:03:57;;;;;;;40.05;14.35;;;1.30;99.90;;;;;;4914693;28;20093;-85
2020/12/20 01:06:28;;;;;;;37.08;14.77;;;1.30;99.90;;;;;;4896350;28;20146;-85
2020/12/20 01:09:07;;;;;;;41.33;14.55;;;1.40;99.90;;;;;;4904249;28;20103;-85
2020/12/20 01:11:42;;;;;;;43.40;14.98;;;1.30;99.90;;;;;;4900165;28;20108;-84
2020/12/20 01:14:06;;;;;;;40.00;15.50;;;1.30;99.90;;;;;;4900339;28;20098;-85
2020/12/20 01:16:35;;;;;;;34.03;13.73;;;1.40;99.90;;;;;;4906003;28;20536;-85
2020/12/20 01:18:59;;;;;;;34.40;13.82;;;1.40;99.90;;;;;;4909714;28;20092;-85
2020/12/20 01:21:23;;;;;;;38.55;14.02;;;1.40;99.90;;;;;;4897976;28;20256;-85
2020/12/20 01:23:47;;;;;;;43.83;16.20;;;1.40;99.90;;;;;;4903347;28;20094;-85
2020/12/20 01:26:12;;;;;;;35.67;14.48;;;1.50;99.90;;;;;;4904148;28;20092;-85
2020/12/20 01:28:44;;;;;;;41.00;15.52;;;1.40;99.90;;;;;;4893466;28;20097;-85
2020/12/20 01:31:11;;;;;;;40.15;13.63;;;1.40;99.90;;;;;;4892977;28;20085;-85
2020/12/20 01:33:35;;;;;;;35.67;13.43;;;1.40;99.90;;;;;;4904430;28;20088;-85
2020/12/20 01:36:02;;;;;;;37.25;14.60;;;1.30;99.90;;;;;;4899947;28;20107;-85
2020/12/20 01:38:45;;;;;;;32.83;13.50;;;1.30;99.90;;;;;;4905720;28;20161;-86
2020/12/20 01:41:10;;;;;;;38.15;14.07;;;1.30;99.90;;;;;;4898926;28;20084;-84
2020/12/20 01:43:51;;;;;;;43.42;14.95;;;1.30;99.90;;;;;;4904115;28;20090;-85
2020/12/20 01:46:18;;;;;;;37.08;14.10;;;1.10;99.90;;;;;;4892766;28;20092;-85
2020/12/20 01:48:42;;;;;;;36.72;14.57;;;1.00;99.90;;;;;;4895508;28;20101;-85
2020/12/20 01:51:16;;;;;;;35.10;14.10;;;0.80;99.90;;;;;;4889490;28;20083;-84
2020/12/20 01:53:52;;;;;;;38.35;14.13;;;0.70;99.90;;;;;;4908105;28;20079;-85
2020/12/20 01:56:14;;;;;;;;;;;0.70;99.90;;;;;;4897142;28;20506;-85
2020/12/20 01:58:40;;;;;;;34.55;12.23;;;0.70;99.90;;;;;;4897821;28;20025;-85
2020/12/20 02:01:08;;;;;;;33.33;12.88;;;0.80;99.90;;;;;;4907326;28;20400;-85
2020/12/20 02:03:33;;;;;;;36.42;13.30;;;0.80;99.90;;;;;;4889924;28;20079;-85
2020/12/20 02:06:06;;;;;;;38.95;14.07;;;1.00;99.90;;;;;;4891945;28;20109;-85
2020/12/20 02:08:28;;;;;;;34.28;12.85;;;1.10;99.90;;;;;;4902658;28;20090;-84
2020/12/20 02:11:08;;;;;;;35.45;11.88;;;1.10;99.90;;;;;;4889923;28;20784;-85
2020/12/20 02:13:44;;;;;;;33.25;12.07;;;1.10;99.90;;;;;;4894679;28;20164;-85
2020/12/20 02:16:15;;;;;;;34.30;12.85;;;1.20;99.90;;;;;;4897629;28;20092;-84
2020/12/20 02:18:38;;;;;;;38.17;14.32;;;1.20;99.90;;;;;;4895286;28;20129;-84
2020/12/20 02:21:17;;;;;;;41.95;13.75;;;1.30;99.90;;;;;;4907179;28;20091;-84
2020/12/20 02:23:40;;;;;;;30.42;11.73;;;1.20;99.90;;;;;;4894312;28;20090;-84
2020/12/20 02:26:06;;;;;;;29.73;11.85;;;1.20;99.90;;;;;;4896554;28;20080;-85
2020/12/20 02:28:29;;;;;;;39.90;13.60;;;1.20;99.90;;;;;;4898842;28;20177;-85
2020/12/20 02:30:52;;;;;;;34.10;12.90;;;1.20;99.90;;;;;;4905292;28;20094;-85
2020/12/20 02:33:18;;;;;;;36.95;12.77;;;1.20;99.90;;;;;;4900023;28;20080;-85
2020/12/20 02:35:51;;;;;;;30.35;12.50;;;1.20;99.90;;;;;;4896050;28;20109;-84
2020/12/20 02:38:15;;;;;;;35.90;13.45;;;1.20;99.90;;;;;;4894853;28;20845;-84
2020/12/20 02:40:40;;;;;;;37.58;13.43;;;1.20;99.90;;;;;;4898590;28;20095;-84
2020/12/20 02:43:08;;;;;;;;;;;1.20;99.90;;;;;;4896707;28;20195;-84
2020/12/20 02:45:32;;;;;;;30.17;12.02;;;1.20;99.90;;;;;;4893613;28;20032;-84
2020/12/20 02:48:02;;;;;;;32.28;12.80;;;1.20;99.90;;;;;;4902929;28;20094;-85
2020/12/20 02:50:34;;;;;;;38.85;13.38;;;1.20;99.90;;;;;;4896829;28;20114;-85
2020/12/20 02:53:01;;;;;;;38.13;13.27;;;1.20;99.90;;;;;;4897255;28;20097;-84
2020/12/20 02:55:27;;;;;;;31.42;11.60;;;1.20;99.90;;;;;;4904632;28;20443;-85
2020/12/20 02:57:52;;;;;;;32.72;12.23;;;1.20;99.90;;;;;;4892924;28;20169;-85
2020/12/20 03:00:21;;;;;;;;;;;1.20;99.90;;;;;;4897358;28;20098;-85
2020/12/20 03:02:51;;;;;;;34.55;11.57;;;1.20;99.90;;;;;;4898613;28;19971;-84
2020/12/20 03:05:17;;;;;;;37.90;13.13;;;1.20;99.90;;;;;;4896745;28;20092;-85
2020/12/20 03:07:51;;;;;;;33.70;12.35;;;1.20;99.90;;;;;;4899696;28;20084;-84
2020/12/20 03:10:17;;;;;;;30.05;13.32;;;1.20;99.90;;;;;;4889064;28;20087;-85
2020/12/20 03:12:44;;;;;;;30.33;11.98;;;1.20;99.90;;;;;;4902825;28;20089;-84
2020/12/20 03:15:07;;;;;;;29.20;11.30;;;1.20;99.90;;;;;;4899352;28;20412;-84
2020/12/20 03:17:37;;;;;;;32.10;12.98;;;1.20;99.90;;;;;;4899776;28;20080;-84
2020/12/20 03:19:59;;;;;;;31.10;12.50;;;1.20;99.90;;;;;;4892841;28;20506;-84
2020/12/20 03:22:23;;;;;;;37.63;12.27;;;1.20;99.90;;;;;;4899713;28;20164;-84
2020/12/20 03:24:47;;;;;;;34.63;13.07;;;1.20;99.90;;;;;;4905381;28;20195;-84
2020/12/20 03:27:20;;;;;;;34.22;12.93;;;1.10;99.90;;;;;;4896091;28;20090;-85
2020/12/20 03:29:44;;;;;;;34.25;12.60;;;1.10;99.90;;;;;;4897563;28;20499;-85
2020/12/20 03:32:07;;;;;;;32.22;12.48;;;1.10;99.90;;;;;;4901539;28;20093;-83
2020/12/20 03:34:40;;;;;;;32.63;11.52;;;1.10;99.90;;;;;;4907034;28;20093;-84
2020/12/20 03:37:16;;;;;;;36.55;12.60;;;1.10;99.90;;;;;;4902268;28;20081;-85
2020/12/20 03:39:39;;;;;;;29.98;12.25;;;1.10;99.90;;;;;;4891389;28;20477;-84
2020/12/20 03:42:05;;;;;;;31.60;12.18;;;1.10;99.90;;;;;;4912272;28;20113;-84
2020/12/20 03:44:28;;;;;;;32.50;12.93;;;1.10;99.90;;;;;;4907663;28;20097;-85
2020/12/20 03:46:53;;;;;;;33.47;13.07;;;;;;;;;;4905298;28;20100;-84
2020/12/20 03:49:16;;;;;;;29.30;12.30;;;1.20;99.90;;;;;;4897644;28;20097;-84
2020/12/20 03:51:41;;;;;;;31.08;11.95;;;1.30;99.90;;;;;;4902981;28;20097;-84
2020/12/20 03:54:04;;;;;;;39.80;13.50;;;1.30;99.90;;;;;;4903363;28;20298;-84
2020/12/20 03:56:33;;;;;;;30.00;11.60;;;1.30;99.90;;;;;;4900608;28;20147;-84
2020/12/20 03:59:02;;;;;;;29.58;10.82;;;1.30;99.90;;;;;;4892108;28;20117;-84
2020/12/20 04:01:25;;;;;;;26.38;11.35;;;1.20;99.90;;;;;;4879957;28;20101;-84
2020/12/20 04:03:58;;;;;;;31.83;12.10;;;1.20;99.90;;;;;;4914742;28;20084;-84
2020/12/20 04:06:24;;;;;;;27.27;11.73;;;1.20;99.90;;;;;;4907903;28;20094;-85
2020/12/20 04:08:48;;;;;;;34.38;12.73;;;1.20;99.90;;;;;;4900608;28;20096;-85
2020/12/20 04:11:12;;;;;;;31.15;12.02;;;;;;;;;;4880679;28;20084;-84
2020/12/20 04:13:43;;;;;;;29.05;12.07;;;1.20;99.90;;;;;;4903075;28;20117;-83
2020/12/20 04:16:12;;;;;;;32.55;11.20;;;1.20;99.90;;;;;;4897416;28;20199;-84
2020/12/20 04:18:41;;;;;;;34.75;12.40;;;1.30;99.90;;;;;;4909707;28;20118;-85
2020/12/20 04:21:06;;;;;;;31.45;12.35;;;1.30;99.90;;;;;;4909948;28;20142;-84
2020/12/20 04:23:30;;;;;;;36.72;12.13;;;1.20;99.90;;;;;;4899866;28;20148;-84
2020/12/20 04:25:53;;;;;;;34.40;12.25;;;1.20;99.90;;;;;;4888569;28;20508;-85
2020/12/20 04:28:19;;;;;;;32.38;12.10;;;1.20;99.90;;;;;;4901684;28;20135;-84
2020/12/20 04:30:42;;;;;;;32.78;12.45;;;1.20;99.90;;;;;;4905513;28;20088;-84
2020/12/20 04:33:18;;;;;;;28.02;10.85;;;1.20;99.90;;;;;;4904430;28;20233;-85
2020/12/20 04:35:43;;;;;;;33.97;12.70;;;1.20;99.90;;;;;;4887016;28;20093;-84
2020/12/20 04:38:07;;;;;;;30.35;12.20;;;1.20;99.90;;;;;;4893041;28;20092;-84
2020/12/20 04:40:30;;;;;;;30.80;12.68;;;1.20;99.90;;;;;;4901928;28;20081;-84
2020/12/20 04:42:59;;;;;;;29.25;11.95;;;1.20;99.90;;;;;;4900497;28;20091;-85
2020/12/20 04:45:26;;;;;;;30.15;12.55;;;1.10;99.90;;;;;;4900714;28;20110;-84
2020/12/20 04:47:55;;;;;;;32.92;12.30;;;1.20;99.90;;;;;;4901580;28;20111;-85
2020/12/20 04:50:18;;;;;;;31.02;12.20;;;1.20;99.90;;;;;;4899795;28;20548;-85
2020/12/20 04:52:44;;;;;;;32.33;12.15;;;1.20;99.90;;;;;;4897784;28;20153;-85
2020/12/20 04:55:12;;;;;;;31.30;12.27;;;1.30;99.90;;;;;;4898550;28;20134;-85
2020/12/20 04:57:36;;;;;;;34.47;13.60;;;1.30;99.90;;;;;;4905454;28;20527;-84
2020/12/20 05:00:00;;;;;;;35.95;13.88;;;1.30;99.90;;;;;;4904150;28;20599;-84
2020/12/20 05:02:30;;;;;;;31.92;12.35;;;1.20;99.90;;;;;;4900221;28;20112;-84
2020/12/20 05:04:54;;;;;;;34.88;12.13;;;1.20;99.90;;;;;;4899902;28;20084;-84
2020/12/20 05:07:37;;;;;;;31.25;12.38;;;1.20;99.90;;;;;;4907317;28;20517;-84
2020/12/20 05:10:06;;;;;;;31.60;11.82;;;1.20;99.90;;;;;;4900478;28;20189;-84
2020/12/20 05:12:38;;;;;;;31.73;12.45;;;1.20;99.90;;;;;;4897388;28;20173;-84
2020/12/20 05:15:18;;;;;;;32.63;12.88;;;1.50;99.90;;;;;;4897921;28;20085;-84
2020/12/20 05:18:02;;;;;;;29.38;12.48;;;1.10;99.90;;;;;;4898777;28;20088;-84
2020/12/20 05:20:42;;;;;;;33.97;12.73;;;1.10;99.90;;;;;;4891328;28;20934;-85
2020/12/20 05:23:08;;;;;;;30.23;11.75;;;1.00;99.90;;;;;;4913836;28;20084;-85
2020/12/20 05:25:42;;;;;;;28.88;13.00;;;1.10;99.90;;;;;;4893157;28;20166;-84
2020/12/20 05:28:15;;;;;;;37.28;12.38;;;1.20;99.90;;;;;;4908040;28;20109;-85
2020/12/20 05:30:45;;;;;;;31.48;11.25;;;1.20;99.90;;;;;;4897692;28;20171;-84
2020/12/20 05:33:24;;;;;;;31.35;12.65;;;1.30;99.90;;;;;;4902392;28;20088;-84
2020/12/20 05:35:58;;;;;;;28.05;11.68;;;1.30;99.90;;;;;;4899908;28;20105;-85
2020/12/20 05:38:24;;;;;;;34.10;12.55;;;1.30;99.90;;;;;;4901725;28;20096;-84
2020/12/20 05:40:55;;;;;;;30.67;12.98;;;1.30;99.90;;;;;;4898572;28;20117;-85
2020/12/20 05:43:23;;;;;;;29.00;11.40;;;1.30;99.90;;;;;;4893710;28;20095;-84
2020/12/20 05:45:52;;;;;;;32.47;12.70;;;1.30;99.90;;;;;;4902728;28;20084;-85
2020/12/20 05:48:19;;;;;;;35.88;14.40;;;1.30;99.90;;;;;;4905080;28;20088;-84
2020/12/20 05:51:00;;;;;;;31.80;12.73;;;1.30;99.90;;;;;;4900571;28;20485;-84
2020/12/20 05:53:33;;;;;;;29.73;12.07;;;1.30;99.90;;;;;;4895145;28;20085;-85
2020/12/20 05:56:01;;;;;;;35.03;12.25;;;1.30;99.90;;;;;;4888078;28;20108;-85
2020/12/20 05:58:33;;;;;;;30.90;12.55;;;1.20;99.90;;;;;;4902992;28;20090;-85
2020/12/20 06:00:59;;;;;;;29.92;11.95;;;1.30;99.90;;;;;;4893866;28;20170;-84
2020/12/20 06:03:22;;;;;;;36.85;13.13;;;1.30;99.90;;;;;;4892053;28;20189;-85
2020/12/20 06:05:47;;;;;;;33.83;12.48;;;1.30;99.90;;;;;;4894959;28;20141;-84
2020/12/20 06:08:12;;;;;;;34.00;13.70;;;1.30;99.90;;;;;;4890600;28;20114;-86
2020/12/20 06:10:42;;;;;;;35.63;12.45;;;1.20;99.90;;;;;;4890506;28;20151;-85
2020/12/20 06:13:09;;;;;;;35.63;13.55;;;1.30;99.90;;;;;;4889270;28;20092;-84
2020/12/20 06:15:41;;;;;;;36.20;13.13;;;1.30;99.90;;;;;;4892737;28;20098;-85
2020/12/20 06:18:09;;;;;;;37.13;13.27;;;1.20;99.90;;;;;;4893957;28;20143;-85
2020/12/20 06:20:48;;;;;;;33.40;13.00;;;1.20;99.90;;;;;;4893069;28;20134;-84
2020/12/20 06:23:23;;;;;;;33.47;11.77;;;1.20;99.90;;;;;;4876960;28;20093;-85
2020/12/20 06:25:48;;;;;;;31.55;12.43;;;1.20;99.90;;;;;;4892702;28;20082;-85
2020/12/20 06:28:18;;;;;;;34.42;12.98;;;1.20;99.90;;;;;;4891981;28;20086;-85
2020/12/20 06:30:47;;;;;;;33.35;12.65;;;1.20;99.90;;;;;;4902537;28;20098;-85
2020/12/20 06:33:25;;;;;;;31.45;11.80;;;1.20;99.90;;;;;;4901820;28;20082;-83
2020/12/20 06:35:51;;;;;;;37.33;13.30;;;1.20;99.90;;;;;;4899667;28;20097;-84
2020/12/20 06:38:15;;;;;;;33.15;12.50;;;1.20;99.90;;;;;;4902242;28;20209;-84
2020/12/20 06:40:50;;;;;;;38.60;13.73;;;1.20;99.90;;;;;;4903208;28;20126;-84
2020/12/20 06:43:13;;;;;;;31.08;13.15;;;1.20;99.90;;;;;;4889781;28;20088;-84
2020/12/20 06:45:41;;;;;;;31.77;12.60;;;1.20;99.90;;;;;;4904713;28;20089;-83
2020/12/20 06:48:13;;;;;;;30.42;13.07;;;1.20;99.90;;;;;;4894147;28;20120;-84
2020/12/20 06:50:45;;;;;;;37.25;13.00;;;1.20;99.90;;;;;;4891667;28;20090;-84
2020/12/20 06:53:09;;;;;;;34.80;13.95;;;1.20;99.90;;;;;;4900439;28;20093;-85
2020/12/20 06:55:33;;;;;;;30.75;11.82;;;1.20;99.90;;;;;;4898155;28;20096;-84
2020/12/20 06:58:24;;;;;;;35.65;13.57;;;1.20;99.90;;;;;;4900307;28;20093;-86
2020/12/20 07:00:49;;;;;;;33.42;13.18;;;1.30;99.90;;;;;;4859329;28;20090;-84
2020/12/20 07:03:41;;;;;;;32.17;12.27;;;1.20;99.90;;;;;;4886181;28;20091;-84
2020/12/20 07:06:18;;;;;;;28.35;11.63;;;1.30;99.90;;;;;;4892484;28;20172;-84
2020/12/20 07:08:54;;;;;;;36.13;12.45;;;1.30;99.90;;;;;;4897707;28;20097;-84
2020/12/20 07:11:25;;;;;;;36.25;13.20;;;1.30;99.90;;;;;;4893787;28;20087;-85
2020/12/20 07:13:51;;;;;;;39.63;13.77;;;1.30;99.90;;;;;;4900675;28;20119;-85
2020/12/20 07:16:24;;;;;;;36.13;13.75;;;1.30;99.90;;;;;;4902471;28;20159;-84
2020/12/20 07:19:01;;;;;;;33.42;12.40;;;1.30;99.90;;;;;;4889354;28;20499;-85
2020/12/20 07:21:56;;;;;;;38.25;13.75;;;1.30;99.90;;;;;;4890064;28;20086;-84
2020/12/20 07:24:20;;;;;;;37.20;12.48;;;1.20;99.90;;;;;;4897611;28;20188;-84
2020/12/20 07:26:46;;;;;;;30.60;13.63;;;1.20;99.90;;;;;;4898307;28;20097;-85
2020/12/20 07:29:12;;;;;;;36.17;13.57;;;1.20;99.90;;;;;;4899496;28;20109;-85
2020/12/20 07:31:37;;;;;;;38.22;13.07;;;1.20;99.90;;;;;;4893620;28;20129;-85
2020/12/20 07:34:03;;;;;;;38.75;14.25;;;1.20;99.90;;;;;;4902068;28;20174;-85
2020/12/20 07:36:26;;;;;;;;;;;1.30;99.90;;;;;;4892831;28;20093;-84
2020/12/20 07:38:59;;;;;;;33.67;12.63;;;1.10;99.90;;;;;;4904665;28;19965;-85
2020/12/20 07:41:28;;;;;;;39.70;13.50;;;1.10;99.90;;;;;;4894680;28;20091;-84
2020/12/20 07:43:52;;;;;;;30.58;12.23;;;1.00;99.90;;;;;;4903234;28;20582;-84
2020/12/20 07:46:23;;;;;;;33.25;10.80;;;1.10;99.90;;;;;;4906190;28;20238;-85
2020/12/20 07:48:53;;;;;;;43.15;12.82;;;1.10;99.90;;;;;;4894788;28;20452;-85
2020/12/20 07:51:19;;;;;;;30.60;12.00;;;1.10;99.90;;;;;;4898314;28;20569;-84
2020/12/20 07:53:47;;;;;;;34.60;13.48;;;1.10;99.90;;;;;;4891770;28;20129;-85
2020/12/20 07:56:10;;;;;;;35.95;13.60;;;1.10;99.90;;;;;;4889856;28;20093;-85
2020/12/20 07:58:42;;;;;;;34.15;13.00;;;1.10;99.90;;;;;;4879465;28;20084;-85
2020/12/20 08:01:08;;;;;;;35.25;12.38;;;1.10;99.90;;;;;;4897465;28;20084;-85
2020/12/20 08:03:31;;;;;;;36.47;13.35;;;1.10;99.90;;;;;;4892021;28;20096;-85
2020/12/20 08:06:10;;;;;;;39.78;13.68;;;1.10;99.90;;;;;;4903971;28;20139;-85
2020/12/20 08:08:38;;;;;;;34.88;13.25;;;1.10;99.90;;;;;;4903073;28;20431;-85
2020/12/20 08:11:05;;;;;;;36.20;14.05;;;1.00;99.90;;;;;;4894024;28;20097;-85
2020/12/20 08:13:28;;;;;;;35.75;12.60;;;1.10;99.90;;;;;;4907406;28;20082;-85
2020/12/20 08:15:59;;;;;;;42.28;14.07;;;1.10;99.90;;;;;;4900485;28;20137;-85
2020/12/20 08:18:24;;;;;;;33.80;13.32;;;1.10;99.90;;;;;;4887856;28;20097;-84
2020/12/20 08:20:48;;;;;;;36.38;14.88;;;1.10;99.90;;;;;;4901126;28;20603;-86
2020/12/20 08:23:20;;;;;;;37.65;12.73;;;1.10;99.90;;;;;;4898953;28;20095;-85
2020/12/20 08:26:02;;;;;;;37.20;13.57;;;1.20;99.90;;;;;;4896406;28;20087;-85
2020/12/20 08:28:27;;;;;;;42.45;14.20;;;1.20;99.90;;;;;;4892893;28;20177;-84
2020/12/20 08:30:50;;;;;;;36.20;13.48;;;1.20;99.90;;;;;;4890143;28;20094;-85
2020/12/20 08:33:13;;;;;;;32.92;13.05;;;1.20;99.90;;;;;;4898773;28;20101;-84
2020/12/20 08:35:37;;;;;;;36.33;13.55;;;1.30;99.90;;;;;;4896853;28;20104;-84
2020/12/20 08:38:01;;;;;;;38.50;14.32;;;1.30;99.90;;;;;;4901399;28;20519;-84
2020/12/20 08:40:32;;;;;;;41.70;15.13;;;1.40;99.90;;;;;;4903772;28;20103;-84
2020/12/20 08:43:01;;;;;;;38.85;13.82;;;1.40;99.90;;;;;;4901459;28;20091;-85
2020/12/20 08:45:25;;;;;;;41.30;14.82;;;1.40;99.90;;;;;;4901079;28;20099;-84
2020/12/20 08:47:52;;;;;;;38.50;14.35;;;1.40;99.90;;;;;;4896440;28;20093;-84
2020/12/20 08:50:26;;;;;;;39.03;15.07;;;1.50;99.90;;;;;;4902466;28;20092;-85
2020/12/20 08:53:06;;;;;;;36.10;14.68;;;1.50;99.90;;;;;;4895528;28;20109;-85
2020/12/20 08:55:30;;;;;;;34.53;13.95;;;1.50;99.90;;;;;;4894259;28;20091;-84
2020/12/20 08:58:08;;;;;;;33.22;13.77;;;1.50;99.90;;;;;;4897286;28;20097;-84
2020/12/20 09:00:47;;;;;;;35.45;14.43;;;1.60;99.90;;;;;;4882220;28;20087;-84
2020/12/20 09:03:27;;;;;;;38.28;13.95;;;1.70;99.90;;;;;;4849791;28;20087;-84
2020/12/20 09:06:10;;;;;;;37.10;14.60;;;1.80;99.90;;;;;;4848646;28;20099;-85
2020/12/20 10:00:16;;;;;;;27.30;11.07;;;2.50;99.90;;;;;;4830853;28;20084;-84
2020/12/20 10:13:01;;;;;;;44.40;16.23;;;3.50;99.90;;;;;;4851644;28;20159;-84
2020/12/20 10:40:20;;;;;;;32.53;14.02;;;3.60;99.90;;;;;;4835639;28;20096;-83
2020/12/20 10:43:37;;;;;;;32.33;14.43;;;3.60;99.90;;;;;;4835681;28;25506;-83
2020/12/20 10:46:00;;;;;;;33.53;13.70;;;3.60;99.90;;;;;;4863371;28;20095;-85
2020/12/20 10:48:23;;;;;;;30.38;13.55;;;3.50;99.90;;;;;;4894431;28;20080;-83
2020/12/20 10:50:47;;;;;;;29.45;13.45;;;3.50;99.90;;;;;;4900543;28;20095;-85
2020/12/20 10:53:17;;;;;;;33.75;15.77;;;3.50;99.90;;;;;;4900755;28;20164;-83
2020/12/20 10:55:44;;;;;;;36.63;14.80;;;;;;;;;;4879828;28;21734;-82
2020/12/20 10:58:20;;;;;;;32.10;14.60;;;3.60;99.90;;;;;;4901398;28;20126;-83
2020/12/20 11:00:45;;;;;;;34.20;15.02;;;3.60;99.90;;;;;;4891469;28;20087;-84
2020/12/20 11:03:10;;;;;;;31.83;13.50;;;3.60;99.90;;;;;;4902014;28;20282;-83
2020/12/20 11:05:34;;;;;;;29.23;13.02;;;3.60;99.90;;;;;;4898501;28;20117;-84
2020/12/20 11:08:01;;;;;;;32.28;15.38;;;3.60;99.90;;;;;;4881624;28;20102;-83
2020/12/20 11:10:33;;;;;;;30.85;14.20;;;3.70;99.90;;;;;;4898110;28;20109;-82
2020/12/20 11:12:58;;;;;;;29.33;14.10;;;3.70;99.90;;;;;;4901733;28;20160;-83
2020/12/20 11:15:27;;;;;;;32.58;14.07;;;3.80;99.90;;;;;;4906424;28;20091;-83
2020/12/20 11:17:51;;;;;;;32.38;14.48;;;3.80;99.90;;;;;;4901298;28;20091;-83
2020/12/20 11:20:16;;;;;;;35.30;14.73;;;3.80;99.90;;;;;;4897643;28;20442;-82
2020/12/20 11:22:48;;;;;;;27.00;13.05;;;3.80;99.90;;;;;;4892708;28;20095;-83
2020/12/20 11:25:13;;;;;;;30.55;13.82;;;3.80;99.90;;;;;;4895527;28;20085;-83
2020/12/20 11:27:36;;;;;;;31.70;13.60;;;3.80;99.90;;;;;;4893378;28;20492;-82
2020/12/20 11:30:00;;;;;;;31.50;14.38;;;3.80;99.90;;;;;;4886810;28;20102;-83
2020/12/20 11:32:23;;;;;;;29.08;13.52;;;3.80;99.90;;;;;;4891538;28;20089;-82
2020/12/20 11:34:46;;;;;;;30.48;14.68;;;3.80;99.90;;;;;;4890201;28;20091;-83
2020/12/20 11:37:09;;;;;;;29.77;13.75;;;3.80;99.90;;;;;;4895109;28;20102;-82
2020/12/20 11:39:34;;;;;;;27.52;13.25;;;3.70;99.90;;;;;;4900467;28;20082;-82
2020/12/20 11:42:04;;;;;;;34.17;14.18;;;3.70;99.90;;;;;;4896129;28;20149;-83
2020/12/20 11:44:28;;;;;;;34.58;14.45;;;3.70;99.90;;;;;;4891879;28;20521;-82
2020/12/20 11:46:52;;;;;;;29.33;14.15;;;3.70;99.90;;;;;;4899888;28;20164;-82
2020/12/20 11:49:22;;;;;;;38.22;14.48;;;3.70;99.90;;;;;;4892916;28;20091;-82
2020/12/20 11:51:46;;;;;;;32.13;14.30;;;3.80;99.90;;;;;;4891633;28;20113;-83
2020/12/20 11:54:10;;;;;;;31.45;15.25;;;3.80;99.90;;;;;;4890201;28;20165;-82
2020/12/20 11:56:33;;;;;;;31.83;14.60;;;3.90;99.90;;;;;;4892106;28;21059;-84
2020/12/20 11:58:56;;;;;;;30.48;14.40;;;3.90;99.90;;;;;;4902729;28;20098;-84
2020/12/20 12:01:23;;;;;;;38.72;16.20;;;3.90;99.90;;;;;;4889034;28;20088;-84
2020/12/20 12:03:52;;;;;;;32.90;15.18;;;4.00;99.90;;;;;;4899471;28;20094;-83
2020/12/20 12:06:16;;;;;;;32.28;15.02;;;4.00;99.90;;;;;;4899735;28;20083;-83
2020/12/20 12:08:39;;;;;;;27.85;14.13;;;4.10;99.90;;;;;;4898952;28;20414;-83
2020/12/20 12:11:11;;;;;;;33.33;13.90;;;4.00;99.90;;;;;;4902263;28;20110;-83
2020/12/20 12:13:38;;;;;;;32.15;14.35;;;4.00;99.90;;;;;;4901299;28;20161;-83
2020/12/20 12:16:02;;;;;;;30.63;14.18;;;4.00;99.90;;;;;;4894322;28;20087;-83
2020/12/20 12:18:30;;;;;;;32.70;14.35;;;4.00;99.90;;;;;;4892237;28;20110;-84
2020/12/20 12:21:01;;;;;;;35.53;15.32;;;4.00;99.90;;;;;;4910316;28;20095;-83
2020/12/20 12:23:24;;;;;;;28.63;14.05;;;3.90;99.90;;;;;;4893731;28;20095;-83
2020/12/20 12:25:51;;;;;;;30.77;14.60;;;4.00;99.90;;;;;;4895117;28;20097;-84
2020/12/20 12:28:14;;;;;;;32.35;14.07;;;4.00;99.90;;;;;;4906342;28;20503;-83
2020/12/20 12:30:37;;;;;;;32.88;15.65;;;4.00;99.90;;;;;;4898703;28;20106;-84
2020/12/20 12:33:00;;;;;;;34.55;14.75;;;4.00;99.90;;;;;;4901008;28;20091;-84
2020/12/20 12:35:24;;;;;;;33.70;14.68;;;4.00;99.90;;;;;;4909570;28;20091;-84
2020/12/20 12:37:51;;;;;;;30.20;14.10;;;3.90;99.90;;;;;;4908505;28;20096;-84
2020/12/20 12:40:15;;;;;;;38.63;15.10;;;3.90;99.90;;;;;;4905262;28;20113;-84
2020/12/20 12:42:40;;;;;;;32.85;14.48;;;4.00;99.90;;;;;;4900373;28;20103;-84
2020/12/20 12:45:05;;;;;;;33.08;14.63;;;4.00;99.90;;;;;;4899404;28;20083;-85
2020/12/20 12:47:30;;;;;;;36.78;16.08;;;3.90;99.90;;;;;;4900552;28;20090;-84
2020/12/20 12:50:06;;;;;;;33.67;15.57;;;3.90;99.90;;;;;;4899287;28;20086;-85
2020/12/20 12:52:34;;;;;;;;;;;3.90;99.90;;;;;;4891293;28;20098;-83
2020/12/20 12:55:05;;;;;;;35.33;13.88;;;3.80;99.90;;;;;;4899730;28;19968;-84
2020/12/20 12:57:34;;;;;;;35.13;14.60;;;3.80;99.90;;;;;;4894962;28;20545;-85
2020/12/20 13:00:14;;;;;;;38.55;15.98;;;3.80;99.90;;;;;;4889993;28;20102;-83
2020/12/20 13:02:40;;;;;;;33.45;15.00;;;3.80;99.90;;;;;;4906160;28;20114;-83
2020/12/20 13:05:04;;;;;;;33.22;15.35;;;3.80;99.90;;;;;;4895241;28;20106;-83
2020/12/20 13:07:35;;;;;;;33.50;15.98;;;3.80;99.90;;;;;;4905335;28;20087;-83
2020/12/20 13:10:08;;;;;;;37.17;16.15;;;;;;;;;;4900243;28;20137;-84
2020/12/20 13:12:31;;;;;;;30.35;14.50;;;3.80;99.90;;;;;;4894095;28;20087;-84
2020/12/20 13:14:59;;;;;;;33.28;14.93;;;3.90;99.90;;;;;;4903945;28;20087;-83
2020/12/20 13:17:22;;;;;;;35.90;15.75;;;3.90;99.90;;;;;;4907597;28;20087;-83
2020/12/20 13:19:45;;;;;;;38.15;16.00;;;3.90;99.90;;;;;;4895916;28;20106;-83
2020/12/20 13:22:09;;;;;;;36.25;16.08;;;3.90;99.90;;;;;;4893085;28;20091;-85
2020/12/20 13:24:32;;;;;;;34.88;14.70;;;3.80;99.90;;;;;;4897465;28;20094;-83
2020/12/20 13:26:57;;;;;;;29.60;14.02;;;3.80;99.90;;;;;;4901238;28;20087;-84
2020/12/20 13:29:20;;;;;;;33.03;13.97;;;3.80;99.90;;;;;;4899188;28;20087;-84
2020/12/20 13:31:52;;;;;;;33.97;16.15;;;3.90;99.90;;;;;;4903889;28;20170;-84
2020/12/20 13:34:19;;;;;;;35.83;15.25;;;3.90;99.90;;;;;;4899862;28;20160;-84
2020/12/20 13:36:50;;;;;;;38.85;16.13;;;3.80;99.90;;;;;;4908582;28;20083;-83
2020/12/20 13:39:14;;;;;;;32.22;14.45;;;3.80;99.90;;;;;;4896155;28;20124;-84
2020/12/20 13:41:37;;;;;;;37.05;15.50;;;3.90;99.90;;;;;;4913500;28;20502;-84
2020/12/20 13:44:11;;;;;;;41.17;16.90;;;3.90;99.90;;;;;;4897929;28;20086;-84
2020/12/20 13:46:36;;;;;;;41.00;17.17;;;3.80;99.90;;;;;;4878949;28;20522;-84
2020/12/20 13:49:02;;;;;;;38.92;17.67;;;3.70;99.90;;;;;;4906268;28;20079;-84
2020/12/20 13:51:25;;;;;;;40.35;17.35;;;3.80;99.90;;;;;;4900949;28;20083;-84
2020/12/20 13:53:49;;;;;;;36.45;15.70;;;3.70;99.90;;;;;;4896737;28;20095;-84
2020/12/20 13:56:12;;;;;;;38.25;16.75;;;3.70;99.90;;;;;;4898557;28;20097;-84
2020/12/20 13:58:44;;;;;;;36.20;17.00;;;3.70;99.90;;;;;;4903187;28;20122;-84
2020/12/20 14:01:14;;;;;;;37.58;16.25;;;3.70;99.90;;;;;;4893139;28;20140;-83
2020/12/20 14:03:38;;;;;;;36.40;15.75;;;3.70;99.90;;;;;;4897861;28;20111;-84
2020/12/20 14:06:03;;;;;;;40.75;17.25;;;3.70;99.90;;;;;;4901363;28;20119;-83
2020/12/20 14:08:27;;;;;;;;;;;3.70;99.90;;;;;;4898694;28;20090;-84
2020/12/20 14:10:51;;;;;;;33.08;14.85;;;3.60;99.90;;;;;;4897708;28;19970;-84